sensor_id;sensor_type;location;lat;lon;timestamp;P1;durP1;ratioP1;P2;durP2;ratioP2
55368;SDS011;41247;49.736;8.752;2023-02-12T00:01:13;54.80;;;24.13;;
55368;SDS011;41247;49.736;8.752;2023-02-12T00:04:54;60.88;;;26.80;;
55368;SDS011;41247;49.736;8.752;2023-02-12T00:08:34;51.90;;;24.90;;
55368;SDS011;41247;49.736;8.752;2023-02-12T00:12:16;60.17;;;25.92;;
55368;SDS011;41247;49.736;8.752;2023-02-12T00:15:57;57.30;;;25.55;;
55368;SDS011;41247;49.736;8.752;2023-02-12T00:19:37;54.10;;;25.42;;
55368;SDS011;41247;49.736;8.752;2023-02-12T00:23:18;58.33;;;27.00;;
55368;SDS011;41247;49.736;8.752;2023-02-12T00:26:59;65.05;;;27.65;;
55368;SDS011;41247;49.736;8.752;2023-02-12T00:30:39;61.13;;;27.25;;
55368;SDS011;41247;49.736;8.752;2023-02-12T00:34:20;64.63;;;27.20;;
55368;SDS011;41247;49.736;8.752;2023-02-12T00:38:00;56.92;;;26.35;;
55368;SDS011;41247;49.736;8.752;2023-02-12T00:41:41;63.70;;;26.90;;
55368;SDS011;41247;49.736;8.752;2023-02-12T00:45:21;53.83;;;25.88;;
55368;SDS011;41247;49.736;8.752;2023-02-12T00:49:02;53.42;;;24.40;;
55368;SDS011;41247;49.736;8.752;2023-02-12T00:52:43;54.53;;;23.60;;
55368;SDS011;41247;49.736;8.752;2023-02-12T00:56:23;49.20;;;22.83;;
55368;SDS011;41247;49.736;8.752;2023-02-12T01:00:04;54.03;;;24.83;;
55368;SDS011;41247;49.736;8.752;2023-02-12T01:03:46;58.22;;;24.65;;
55368;SDS011;41247;49.736;8.752;2023-02-12T01:07:26;57.80;;;25.75;;
55368;SDS011;41247;49.736;8.752;2023-02-12T01:11:07;58.13;;;24.80;;
55368;SDS011;41247;49.736;8.752;2023-02-12T01:14:51;60.40;;;25.15;;
55368;SDS011;41247;49.736;8.752;2023-02-12T01:18:32;55.40;;;24.55;;
55368;SDS011;41247;49.736;8.752;2023-02-12T01:22:13;58.10;;;25.27;;
55368;SDS011;41247;49.736;8.752;2023-02-12T01:25:53;57.92;;;27.02;;
55368;SDS011;41247;49.736;8.752;2023-02-12T01:29:34;56.72;;;25.55;;
55368;SDS011;41247;49.736;8.752;2023-02-12T01:33:15;70.43;;;28.80;;
55368;SDS011;41247;49.736;8.752;2023-02-12T01:36:56;59.42;;;27.42;;
55368;SDS011;41247;49.736;8.752;2023-02-12T01:40:36;61.25;;;26.60;;
55368;SDS011;41247;49.736;8.752;2023-02-12T01:44:18;65.45;;;27.17;;
55368;SDS011;41247;49.736;8.752;2023-02-12T01:48:04;59.88;;;25.50;;
55368;SDS011;41247;49.736;8.752;2023-02-12T01:51:44;56.42;;;24.30;;
55368;SDS011;41247;49.736;8.752;2023-02-12T01:55:30;53.42;;;23.27;;
55368;SDS011;41247;49.736;8.752;2023-02-12T01:59:11;52.72;;;22.83;;
55368;SDS011;41247;49.736;8.752;2023-02-12T02:02:53;51.22;;;22.20;;
55368;SDS011;41247;49.736;8.752;2023-02-12T02:06:45;57.10;;;23.58;;
55368;SDS011;41247;49.736;8.752;2023-02-12T02:10:31;51.30;;;23.08;;
55368;SDS011;41247;49.736;8.752;2023-02-12T02:14:12;55.20;;;23.75;;
55368;SDS011;41247;49.736;8.752;2023-02-12T02:17:58;54.10;;;22.73;;
55368;SDS011;41247;49.736;8.752;2023-02-12T02:21:53;53.78;;;22.77;;
55368;SDS011;41247;49.736;8.752;2023-02-12T02:30:24;47.65;;;21.90;;
55368;SDS011;41247;49.736;8.752;2023-02-12T02:34:20;52.42;;;23.30;;
55368;SDS011;41247;49.736;8.752;2023-02-12T02:42:32;60.00;;;23.92;;
55368;SDS011;41247;49.736;8.752;2023-02-12T02:46:25;55.92;;;24.33;;
55368;SDS011;41247;49.736;8.752;2023-02-12T02:50:16;60.65;;;23.98;;
55368;SDS011;41247;49.736;8.752;2023-02-12T02:54:07;56.00;;;24.00;;
55368;SDS011;41247;49.736;8.752;2023-02-12T03:05:25;58.13;;;25.17;;
55368;SDS011;41247;49.736;8.752;2023-02-12T03:09:35;66.50;;;26.73;;
55368;SDS011;41247;49.736;8.752;2023-02-12T03:13:39;65.05;;;27.00;;
55368;SDS011;41247;49.736;8.752;2023-02-12T03:17:30;71.13;;;27.83;;
55368;SDS011;41247;49.736;8.752;2023-02-12T03:21:17;60.90;;;24.40;;
55368;SDS011;41247;49.736;8.752;2023-02-12T03:25:11;59.60;;;23.83;;
55368;SDS011;41247;49.736;8.752;2023-02-12T03:28:57;63.17;;;23.90;;
55368;SDS011;41247;49.736;8.752;2023-02-12T03:32:51;59.15;;;24.27;;
55368;SDS011;41247;49.736;8.752;2023-02-12T03:36:54;60.63;;;23.95;;
55368;SDS011;41247;49.736;8.752;2023-02-12T03:40:46;76.43;;;28.83;;
55368;SDS011;41247;49.736;8.752;2023-02-12T03:44:39;69.07;;;27.15;;
55368;SDS011;41247;49.736;8.752;2023-02-12T03:52:48;73.35;;;28.17;;
55368;SDS011;41247;49.736;8.752;2023-02-12T03:56:37;81.47;;;31.05;;
55368;SDS011;41247;49.736;8.752;2023-02-12T04:00:24;80.30;;;30.48;;
55368;SDS011;41247;49.736;8.752;2023-02-12T04:04:06;77.45;;;30.52;;
55368;SDS011;41247;49.736;8.752;2023-02-12T04:07:48;75.05;;;28.38;;
55368;SDS011;41247;49.736;8.752;2023-02-12T04:19:09;65.95;;;27.35;;
55368;SDS011;41247;49.736;8.752;2023-02-12T04:23:13;69.05;;;27.25;;
55368;SDS011;41247;49.736;8.752;2023-02-12T04:27:38;71.55;;;29.05;;
55368;SDS011;41247;49.736;8.752;2023-02-12T04:39:21;78.53;;;28.50;;
55368;SDS011;41247;49.736;8.752;2023-02-12T04:43:05;69.60;;;26.98;;
55368;SDS011;41247;49.736;8.752;2023-02-12T04:46:46;76.68;;;28.02;;
55368;SDS011;41247;49.736;8.752;2023-02-12T04:50:27;77.00;;;26.90;;
55368;SDS011;41247;49.736;8.752;2023-02-12T04:54:21;71.20;;;26.35;;
55368;SDS011;41247;49.736;8.752;2023-02-12T04:58:03;67.60;;;26.65;;
55368;SDS011;41247;49.736;8.752;2023-02-12T05:01:45;72.95;;;26.58;;
55368;SDS011;41247;49.736;8.752;2023-02-12T05:05:25;69.22;;;25.15;;
55368;SDS011;41247;49.736;8.752;2023-02-12T05:09:06;68.78;;;24.05;;
55368;SDS011;41247;49.736;8.752;2023-02-12T05:12:53;62.70;;;23.33;;
55368;SDS011;41247;49.736;8.752;2023-02-12T05:16:34;61.60;;;23.30;;
55368;SDS011;41247;49.736;8.752;2023-02-12T05:20:15;75.65;;;24.92;;
55368;SDS011;41247;49.736;8.752;2023-02-12T05:23:55;97.35;;;28.63;;
55368;SDS011;41247;49.736;8.752;2023-02-12T05:27:36;106.85;;;29.25;;
55368;SDS011;41247;49.736;8.752;2023-02-12T05:31:17;100.43;;;30.85;;
55368;SDS011;41247;49.736;8.752;2023-02-12T05:34:59;93.97;;;30.50;;
55368;SDS011;41247;49.736;8.752;2023-02-12T05:38:40;92.38;;;28.35;;
55368;SDS011;41247;49.736;8.752;2023-02-12T05:42:21;104.90;;;30.20;;
55368;SDS011;41247;49.736;8.752;2023-02-12T05:46:02;97.65;;;28.92;;
55368;SDS011;41247;49.736;8.752;2023-02-12T05:49:44;91.15;;;27.85;;
55368;SDS011;41247;49.736;8.752;2023-02-12T05:53:25;105.63;;;30.08;;
55368;SDS011;41247;49.736;8.752;2023-02-12T05:57:06;107.95;;;31.02;;
55368;SDS011;41247;49.736;8.752;2023-02-12T06:00:46;96.80;;;29.80;;
55368;SDS011;41247;49.736;8.752;2023-02-12T06:04:27;109.00;;;31.95;;
55368;SDS011;41247;49.736;8.752;2023-02-12T06:08:08;111.95;;;31.33;;
55368;SDS011;41247;49.736;8.752;2023-02-12T06:11:48;125.28;;;33.22;;
55368;SDS011;41247;49.736;8.752;2023-02-12T06:15:29;155.98;;;36.70;;
55368;SDS011;41247;49.736;8.752;2023-02-12T06:19:10;139.68;;;34.58;;
55368;SDS011;41247;49.736;8.752;2023-02-12T06:22:50;158.50;;;38.08;;
55368;SDS011;41247;49.736;8.752;2023-02-12T06:26:31;155.32;;;37.15;;
55368;SDS011;41247;49.736;8.752;2023-02-12T06:30:12;154.02;;;37.97;;
55368;SDS011;41247;49.736;8.752;2023-02-12T06:33:54;153.65;;;38.53;;
55368;SDS011;41247;49.736;8.752;2023-02-12T06:37:36;182.65;;;38.75;;
55368;SDS011;41247;49.736;8.752;2023-02-12T06:41:17;192.82;;;39.90;;
55368;SDS011;41247;49.736;8.752;2023-02-12T06:44:58;176.90;;;41.33;;
55368;SDS011;41247;49.736;8.752;2023-02-12T06:48:39;184.13;;;41.95;;
55368;SDS011;41247;49.736;8.752;2023-02-12T06:52:20;181.52;;;39.47;;
55368;SDS011;41247;49.736;8.752;2023-02-12T06:56:01;190.80;;;40.95;;
55368;SDS011;41247;49.736;8.752;2023-02-12T06:59:44;205.07;;;43.37;;
55368;SDS011;41247;49.736;8.752;2023-02-12T07:03:24;184.35;;;40.78;;
55368;SDS011;41247;49.736;8.752;2023-02-12T07:07:05;223.13;;;45.30;;
55368;SDS011;41247;49.736;8.752;2023-02-12T07:10:47;233.85;;;47.78;;
55368;SDS011;41247;49.736;8.752;2023-02-12T07:14:28;206.82;;;46.13;;
55368;SDS011;41247;49.736;8.752;2023-02-12T07:18:09;203.85;;;46.55;;
55368;SDS011;41247;49.736;8.752;2023-02-12T07:21:49;220.50;;;46.95;;
55368;SDS011;41247;49.736;8.752;2023-02-12T07:25:30;231.95;;;48.53;;
55368;SDS011;41247;49.736;8.752;2023-02-12T07:29:11;219.57;;;49.35;;
55368;SDS011;41247;49.736;8.752;2023-02-12T07:32:53;213.82;;;47.83;;
55368;SDS011;41247;49.736;8.752;2023-02-12T07:36:33;233.18;;;51.25;;
55368;SDS011;41247;49.736;8.752;2023-02-12T07:40:14;220.32;;;50.40;;
55368;SDS011;41247;49.736;8.752;2023-02-12T07:43:55;224.10;;;49.10;;
55368;SDS011;41247;49.736;8.752;2023-02-12T07:47:39;208.18;;;47.97;;
55368;SDS011;41247;49.736;8.752;2023-02-12T07:51:20;205.32;;;48.63;;
55368;SDS011;41247;49.736;8.752;2023-02-12T07:55:01;222.07;;;49.72;;
55368;SDS011;41247;49.736;8.752;2023-02-12T07:58:42;203.43;;;47.63;;
55368;SDS011;41247;49.736;8.752;2023-02-12T08:02:25;209.57;;;48.53;;
55368;SDS011;41247;49.736;8.752;2023-02-12T08:06:09;196.70;;;46.60;;
55368;SDS011;41247;49.736;8.752;2023-02-12T08:09:52;194.13;;;48.92;;
55368;SDS011;41247;49.736;8.752;2023-02-12T08:13:33;203.75;;;48.00;;
55368;SDS011;41247;49.736;8.752;2023-02-12T08:17:15;192.80;;;47.17;;
55368;SDS011;41247;49.736;8.752;2023-02-12T08:20:59;185.93;;;45.70;;
55368;SDS011;41247;49.736;8.752;2023-02-12T08:24:46;195.00;;;45.55;;
55368;SDS011;41247;49.736;8.752;2023-02-12T08:28:26;181.80;;;47.33;;
55368;SDS011;41247;49.736;8.752;2023-02-12T08:32:07;181.82;;;46.03;;
55368;SDS011;41247;49.736;8.752;2023-02-12T08:35:48;176.80;;;45.65;;
55368;SDS011;41247;49.736;8.752;2023-02-12T08:39:39;168.90;;;47.60;;
55368;SDS011;41247;49.736;8.752;2023-02-12T08:43:19;171.13;;;47.42;;
55368;SDS011;41247;49.736;8.752;2023-02-12T08:47:00;163.32;;;46.45;;
55368;SDS011;41247;49.736;8.752;2023-02-12T08:50:40;159.68;;;46.30;;
55368;SDS011;41247;49.736;8.752;2023-02-12T08:54:25;146.65;;;45.22;;
55368;SDS011;41247;49.736;8.752;2023-02-12T08:58:07;142.43;;;43.97;;
55368;SDS011;41247;49.736;8.752;2023-02-12T09:01:51;138.60;;;44.38;;
55368;SDS011;41247;49.736;8.752;2023-02-12T09:05:32;133.40;;;42.03;;
55368;SDS011;41247;49.736;8.752;2023-02-12T09:09:17;129.68;;;42.97;;
55368;SDS011;41247;49.736;8.752;2023-02-12T09:12:59;126.88;;;41.25;;
55368;SDS011;41247;49.736;8.752;2023-02-12T09:16:40;121.60;;;40.67;;
55368;SDS011;41247;49.736;8.752;2023-02-12T09:20:21;122.50;;;40.90;;
55368;SDS011;41247;49.736;8.752;2023-02-12T09:24:01;123.13;;;40.92;;
55368;SDS011;41247;49.736;8.752;2023-02-12T09:27:42;114.57;;;39.92;;
55368;SDS011;41247;49.736;8.752;2023-02-12T09:31:27;116.80;;;40.53;;
55368;SDS011;41247;49.736;8.752;2023-02-12T09:35:09;110.07;;;38.70;;
55368;SDS011;41247;49.736;8.752;2023-02-12T09:38:50;111.65;;;38.85;;
55368;SDS011;41247;49.736;8.752;2023-02-12T09:42:34;106.43;;;38.10;;
55368;SDS011;41247;49.736;8.752;2023-02-12T09:50:33;109.15;;;36.88;;
55368;SDS011;41247;49.736;8.752;2023-02-12T09:54:38;102.10;;;36.88;;
55368;SDS011;41247;49.736;8.752;2023-02-12T10:02:16;105.20;;;37.90;;
55368;SDS011;41247;49.736;8.752;2023-02-12T10:06:00;108.65;;;38.05;;
55368;SDS011;41247;49.736;8.752;2023-02-12T10:09:54;107.10;;;38.80;;
55368;SDS011;41247;49.736;8.752;2023-02-12T10:26:49;88.13;;;35.40;;
55368;SDS011;41247;49.736;8.752;2023-02-12T10:31:18;83.10;;;35.60;;
55368;SDS011;41247;49.736;8.752;2023-02-12T10:35:12;80.47;;;34.42;;
55368;SDS011;41247;49.736;8.752;2023-02-12T10:39:03;78.07;;;33.92;;
55368;SDS011;41247;49.736;8.752;2023-02-12T10:42:55;75.43;;;32.38;;
55368;SDS011;41247;49.736;8.752;2023-02-12T10:46:36;75.85;;;31.85;;
55368;SDS011;41247;49.736;8.752;2023-02-12T10:54:30;67.28;;;29.77;;
55368;SDS011;41247;49.736;8.752;2023-02-12T10:58:23;67.40;;;29.27;;
55368;SDS011;41247;49.736;8.752;2023-02-12T11:02:04;66.05;;;29.45;;
55368;SDS011;41247;49.736;8.752;2023-02-12T11:09:56;63.05;;;28.90;;
55368;SDS011;41247;49.736;8.752;2023-02-12T11:13:37;58.30;;;27.92;;
55368;SDS011;41247;49.736;8.752;2023-02-12T11:17:32;60.90;;;27.48;;
55368;SDS011;41247;49.736;8.752;2023-02-12T11:21:21;65.07;;;29.88;;
55368;SDS011;41247;49.736;8.752;2023-02-12T11:25:07;64.85;;;29.05;;
55368;SDS011;41247;49.736;8.752;2023-02-12T11:28:57;56.17;;;25.63;;
55368;SDS011;41247;49.736;8.752;2023-02-12T11:32:40;54.60;;;25.50;;
55368;SDS011;41247;49.736;8.752;2023-02-12T11:36:24;63.53;;;28.95;;
55368;SDS011;41247;49.736;8.752;2023-02-12T11:40:12;57.35;;;27.05;;
55368;SDS011;41247;49.736;8.752;2023-02-12T11:44:17;61.85;;;28.52;;
55368;SDS011;41247;49.736;8.752;2023-02-12T11:48:10;53.40;;;24.65;;
55368;SDS011;41247;49.736;8.752;2023-02-12T11:51:59;54.00;;;24.20;;
55368;SDS011;41247;49.736;8.752;2023-02-12T11:55:42;42.15;;;20.50;;
55368;SDS011;41247;49.736;8.752;2023-02-12T11:59:35;47.60;;;21.83;;
55368;SDS011;41247;49.736;8.752;2023-02-12T12:03:23;47.13;;;21.67;;
55368;SDS011;41247;49.736;8.752;2023-02-12T12:07:24;42.38;;;20.35;;
55368;SDS011;41247;49.736;8.752;2023-02-12T12:11:20;41.17;;;20.40;;
55368;SDS011;41247;49.736;8.752;2023-02-12T12:15:09;40.90;;;20.10;;
55368;SDS011;41247;49.736;8.752;2023-02-12T12:19:21;33.75;;;16.70;;
55368;SDS011;41247;49.736;8.752;2023-02-12T12:31:32;29.35;;;15.95;;
55368;SDS011;41247;49.736;8.752;2023-02-12T12:35:19;34.08;;;17.10;;
55368;SDS011;41247;49.736;8.752;2023-02-12T12:56:21;28.27;;;13.82;;
55368;SDS011;41247;49.736;8.752;2023-02-12T13:17:12;28.65;;;15.35;;
55368;SDS011;41247;49.736;8.752;2023-02-12T13:21:13;32.47;;;16.63;;
55368;SDS011;41247;49.736;8.752;2023-02-12T13:29:12;34.88;;;15.73;;
55368;SDS011;41247;49.736;8.752;2023-02-12T13:37:15;30.00;;;14.82;;
55368;SDS011;41247;49.736;8.752;2023-02-12T13:41:04;27.58;;;14.50;;
55368;SDS011;41247;49.736;8.752;2023-02-12T13:52:43;33.65;;;15.90;;
55368;SDS011;41247;49.736;8.752;2023-02-12T14:08:36;36.47;;;17.88;;
55368;SDS011;41247;49.736;8.752;2023-02-12T14:20:23;40.92;;;20.20;;
55368;SDS011;41247;49.736;8.752;2023-02-12T14:48:01;45.78;;;21.58;;
55368;SDS011;41247;49.736;8.752;2023-02-12T14:51:57;45.03;;;21.63;;
55368;SDS011;41247;49.736;8.752;2023-02-12T14:55:46;41.90;;;21.92;;
55368;SDS011;41247;49.736;8.752;2023-02-12T14:59:28;40.70;;;23.17;;
55368;SDS011;41247;49.736;8.752;2023-02-12T15:03:16;44.75;;;23.20;;
55368;SDS011;41247;49.736;8.752;2023-02-12T15:07:13;45.30;;;23.92;;
55368;SDS011;41247;49.736;8.752;2023-02-12T15:15:13;43.80;;;23.77;;
55368;SDS011;41247;49.736;8.752;2023-02-12T15:19:11;43.55;;;23.02;;
55368;SDS011;41247;49.736;8.752;2023-02-12T15:27:15;42.17;;;22.38;;
55368;SDS011;41247;49.736;8.752;2023-02-12T15:30:59;43.83;;;23.77;;
55368;SDS011;41247;49.736;8.752;2023-02-12T15:34:41;42.35;;;22.67;;
55368;SDS011;41247;49.736;8.752;2023-02-12T15:38:39;45.50;;;23.55;;
55368;SDS011;41247;49.736;8.752;2023-02-12T15:42:24;41.75;;;22.83;;
55368;SDS011;41247;49.736;8.752;2023-02-12T15:46:16;46.60;;;24.25;;
55368;SDS011;41247;49.736;8.752;2023-02-12T15:49:58;43.00;;;23.38;;
55368;SDS011;41247;49.736;8.752;2023-02-12T15:53:39;46.30;;;23.95;;
55368;SDS011;41247;49.736;8.752;2023-02-12T15:57:21;45.35;;;23.02;;
55368;SDS011;41247;49.736;8.752;2023-02-12T16:01:04;43.22;;;23.40;;
55368;SDS011;41247;49.736;8.752;2023-02-12T16:04:45;42.63;;;22.55;;
55368;SDS011;41247;49.736;8.752;2023-02-12T16:08:26;44.08;;;22.63;;
55368;SDS011;41247;49.736;8.752;2023-02-12T16:12:14;43.13;;;21.80;;
55368;SDS011;41247;49.736;8.752;2023-02-12T16:16:07;42.55;;;21.25;;
55368;SDS011;41247;49.736;8.752;2023-02-12T16:19:57;38.78;;;20.90;;
55368;SDS011;41247;49.736;8.752;2023-02-12T16:24:03;49.72;;;24.13;;
55368;SDS011;41247;49.736;8.752;2023-02-12T16:28:16;39.65;;;20.60;;
55368;SDS011;41247;49.736;8.752;2023-02-12T16:32:10;46.30;;;21.80;;
55368;SDS011;41247;49.736;8.752;2023-02-12T16:47:40;55.13;;;26.85;;
55368;SDS011;41247;49.736;8.752;2023-02-12T16:51:25;61.08;;;27.67;;
55368;SDS011;41247;49.736;8.752;2023-02-12T16:55:13;61.78;;;27.88;;
55368;SDS011;41247;49.736;8.752;2023-02-12T16:58:57;60.28;;;29.05;;
55368;SDS011;41247;49.736;8.752;2023-02-12T17:02:38;65.18;;;29.58;;
55368;SDS011;41247;49.736;8.752;2023-02-12T17:06:26;67.60;;;30.20;;
55368;SDS011;41247;49.736;8.752;2023-02-12T17:10:13;65.32;;;28.33;;
55368;SDS011;41247;49.736;8.752;2023-02-12T17:13:56;66.95;;;29.25;;
55368;SDS011;41247;49.736;8.752;2023-02-12T17:17:36;66.00;;;28.92;;
55368;SDS011;41247;49.736;8.752;2023-02-12T17:25:19;64.85;;;28.00;;
55368;SDS011;41247;49.736;8.752;2023-02-12T17:29:00;53.50;;;24.45;;
55368;SDS011;41247;49.736;8.752;2023-02-12T17:32:40;61.72;;;27.70;;
55368;SDS011;41247;49.736;8.752;2023-02-12T17:36:21;57.72;;;27.38;;
55368;SDS011;41247;49.736;8.752;2023-02-12T17:40:02;60.38;;;27.75;;
55368;SDS011;41247;49.736;8.752;2023-02-12T17:43:43;56.83;;;26.23;;
55368;SDS011;41247;49.736;8.752;2023-02-12T17:47:24;53.90;;;24.67;;
55368;SDS011;41247;49.736;8.752;2023-02-12T17:51:04;57.67;;;25.48;;
55368;SDS011;41247;49.736;8.752;2023-02-12T17:54:45;50.92;;;24.05;;
55368;SDS011;41247;49.736;8.752;2023-02-12T17:58:26;54.20;;;23.88;;
55368;SDS011;41247;49.736;8.752;2023-02-12T18:02:07;49.25;;;23.40;;
55368;SDS011;41247;49.736;8.752;2023-02-12T18:05:49;49.90;;;22.08;;
55368;SDS011;41247;49.736;8.752;2023-02-12T18:09:30;45.63;;;20.85;;
55368;SDS011;41247;49.736;8.752;2023-02-12T18:13:11;48.47;;;21.45;;
55368;SDS011;41247;49.736;8.752;2023-02-12T18:16:51;50.55;;;23.08;;
55368;SDS011;41247;49.736;8.752;2023-02-12T18:20:32;59.00;;;25.30;;
55368;SDS011;41247;49.736;8.752;2023-02-12T18:24:13;50.33;;;22.05;;
55368;SDS011;41247;49.736;8.752;2023-02-12T18:27:53;52.30;;;21.33;;
55368;SDS011;41247;49.736;8.752;2023-02-12T18:31:34;48.40;;;19.92;;
55368;SDS011;41247;49.736;8.752;2023-02-12T18:35:14;59.42;;;22.35;;
55368;SDS011;41247;49.736;8.752;2023-02-12T18:38:55;45.60;;;18.75;;
55368;SDS011;41247;49.736;8.752;2023-02-12T18:42:36;44.10;;;17.52;;
55368;SDS011;41247;49.736;8.752;2023-02-12T18:46:18;49.60;;;19.15;;
55368;SDS011;41247;49.736;8.752;2023-02-12T18:50:01;43.80;;;17.40;;
55368;SDS011;41247;49.736;8.752;2023-02-12T18:53:42;40.92;;;16.73;;
55368;SDS011;41247;49.736;8.752;2023-02-12T18:57:23;42.60;;;16.95;;
55368;SDS011;41247;49.736;8.752;2023-02-12T19:01:17;35.20;;;16.33;;
55368;SDS011;41247;49.736;8.752;2023-02-12T19:04:59;36.20;;;16.95;;
55368;SDS011;41247;49.736;8.752;2023-02-12T19:08:39;35.90;;;16.50;;
55368;SDS011;41247;49.736;8.752;2023-02-12T19:12:20;39.28;;;18.08;;
55368;SDS011;41247;49.736;8.752;2023-02-12T19:16:04;37.28;;;17.65;;
55368;SDS011;41247;49.736;8.752;2023-02-12T19:19:54;38.53;;;16.80;;
55368;SDS011;41247;49.736;8.752;2023-02-12T19:23:34;35.45;;;16.38;;
55368;SDS011;41247;49.736;8.752;2023-02-12T19:27:15;34.67;;;16.10;;
55368;SDS011;41247;49.736;8.752;2023-02-12T19:30:56;35.22;;;16.60;;
55368;SDS011;41247;49.736;8.752;2023-02-12T19:34:37;31.80;;;15.27;;
55368;SDS011;41247;49.736;8.752;2023-02-12T19:38:17;32.97;;;15.60;;
55368;SDS011;41247;49.736;8.752;2023-02-12T19:41:58;32.47;;;16.15;;
55368;SDS011;41247;49.736;8.752;2023-02-12T19:45:38;33.20;;;15.90;;
55368;SDS011;41247;49.736;8.752;2023-02-12T19:49:20;34.75;;;15.88;;
55368;SDS011;41247;49.736;8.752;2023-02-12T19:53:06;37.15;;;16.23;;
55368;SDS011;41247;49.736;8.752;2023-02-12T19:56:47;36.88;;;16.98;;
55368;SDS011;41247;49.736;8.752;2023-02-12T20:00:28;37.03;;;16.42;;
55368;SDS011;41247;49.736;8.752;2023-02-12T20:04:12;33.05;;;16.38;;
55368;SDS011;41247;49.736;8.752;2023-02-12T20:07:56;34.08;;;16.33;;
55368;SDS011;41247;49.736;8.752;2023-02-12T20:11:36;32.38;;;15.52;;
55368;SDS011;41247;49.736;8.752;2023-02-12T20:15:18;34.83;;;15.88;;
55368;SDS011;41247;49.736;8.752;2023-02-12T20:18:59;36.20;;;16.75;;
55368;SDS011;41247;49.736;8.752;2023-02-12T20:22:47;34.00;;;15.75;;
55368;SDS011;41247;49.736;8.752;2023-02-12T20:26:28;31.92;;;15.18;;
55368;SDS011;41247;49.736;8.752;2023-02-12T20:30:10;29.75;;;15.70;;
55368;SDS011;41247;49.736;8.752;2023-02-12T20:33:59;29.02;;;14.70;;
55368;SDS011;41247;49.736;8.752;2023-02-12T20:37:46;31.83;;;15.15;;
55368;SDS011;41247;49.736;8.752;2023-02-12T20:41:26;33.03;;;15.50;;
55368;SDS011;41247;49.736;8.752;2023-02-12T20:45:07;28.67;;;14.27;;
55368;SDS011;41247;49.736;8.752;2023-02-12T20:48:48;32.00;;;15.60;;
55368;SDS011;41247;49.736;8.752;2023-02-12T20:52:29;31.98;;;14.35;;
55368;SDS011;41247;49.736;8.752;2023-02-12T20:56:10;30.27;;;15.20;;
55368;SDS011;41247;49.736;8.752;2023-02-12T20:59:57;30.58;;;15.20;;
55368;SDS011;41247;49.736;8.752;2023-02-12T21:03:38;30.55;;;14.73;;
55368;SDS011;41247;49.736;8.752;2023-02-12T21:07:19;33.80;;;14.88;;
55368;SDS011;41247;49.736;8.752;2023-02-12T21:11:01;34.08;;;14.88;;
55368;SDS011;41247;49.736;8.752;2023-02-12T21:14:49;30.77;;;14.50;;
55368;SDS011;41247;49.736;8.752;2023-02-12T21:18:30;35.63;;;14.88;;
55368;SDS011;41247;49.736;8.752;2023-02-12T21:22:11;35.20;;;15.52;;
55368;SDS011;41247;49.736;8.752;2023-02-12T21:25:57;31.20;;;14.52;;
55368;SDS011;41247;49.736;8.752;2023-02-12T21:29:42;36.53;;;16.00;;
55368;SDS011;41247;49.736;8.752;2023-02-12T21:33:23;35.85;;;15.07;;
55368;SDS011;41247;49.736;8.752;2023-02-12T21:37:03;31.40;;;13.88;;
55368;SDS011;41247;49.736;8.752;2023-02-12T21:40:44;31.45;;;15.23;;
55368;SDS011;41247;49.736;8.752;2023-02-12T21:44:25;33.80;;;15.20;;
55368;SDS011;41247;49.736;8.752;2023-02-12T21:48:06;34.70;;;15.20;;
55368;SDS011;41247;49.736;8.752;2023-02-12T21:51:46;35.53;;;15.98;;
55368;SDS011;41247;49.736;8.752;2023-02-12T21:55:27;38.63;;;16.17;;
55368;SDS011;41247;49.736;8.752;2023-02-12T21:59:08;37.17;;;16.58;;
55368;SDS011;41247;49.736;8.752;2023-02-12T22:02:49;33.85;;;15.30;;
55368;SDS011;41247;49.736;8.752;2023-02-12T22:06:29;31.02;;;14.13;;
55368;SDS011;41247;49.736;8.752;2023-02-12T22:10:10;32.30;;;15.10;;
55368;SDS011;41247;49.736;8.752;2023-02-12T22:13:50;32.47;;;15.00;;
55368;SDS011;41247;49.736;8.752;2023-02-12T22:17:31;34.92;;;15.65;;
55368;SDS011;41247;49.736;8.752;2023-02-12T22:21:12;32.15;;;14.57;;
55368;SDS011;41247;49.736;8.752;2023-02-12T22:24:54;30.45;;;14.68;;
55368;SDS011;41247;49.736;8.752;2023-02-12T22:28:45;34.05;;;14.90;;
55368;SDS011;41247;49.736;8.752;2023-02-12T22:32:28;34.40;;;14.33;;
55368;SDS011;41247;49.736;8.752;2023-02-12T22:36:09;31.90;;;14.55;;
55368;SDS011;41247;49.736;8.752;2023-02-12T22:39:50;29.65;;;14.43;;
55368;SDS011;41247;49.736;8.752;2023-02-12T22:43:31;33.50;;;14.45;;
55368;SDS011;41247;49.736;8.752;2023-02-12T22:47:13;37.03;;;15.60;;
55368;SDS011;41247;49.736;8.752;2023-02-12T22:50:54;36.70;;;16.17;;
55368;SDS011;41247;49.736;8.752;2023-02-12T22:54:35;40.00;;;16.40;;
55368;SDS011;41247;49.736;8.752;2023-02-12T22:58:16;40.08;;;16.02;;
55368;SDS011;41247;49.736;8.752;2023-02-12T23:01:57;43.08;;;15.73;;
55368;SDS011;41247;49.736;8.752;2023-02-12T23:05:38;39.60;;;17.05;;
55368;SDS011;41247;49.736;8.752;2023-02-12T23:09:18;43.83;;;16.95;;
55368;SDS011;41247;49.736;8.752;2023-02-12T23:13:00;39.28;;;16.83;;
55368;SDS011;41247;49.736;8.752;2023-02-12T23:16:41;36.88;;;15.65;;
55368;SDS011;41247;49.736;8.752;2023-02-12T23:20:22;45.38;;;17.08;;
55368;SDS011;41247;49.736;8.752;2023-02-12T23:24:03;38.58;;;16.02;;
55368;SDS011;41247;49.736;8.752;2023-02-12T23:27:44;41.50;;;16.48;;
55368;SDS011;41247;49.736;8.752;2023-02-12T23:31:24;46.70;;;17.58;;
55368;SDS011;41247;49.736;8.752;2023-02-12T23:35:05;44.35;;;16.90;;
55368;SDS011;41247;49.736;8.752;2023-02-12T23:38:46;41.55;;;16.92;;
55368;SDS011;41247;49.736;8.752;2023-02-12T23:42:26;53.28;;;18.13;;
55368;SDS011;41247;49.736;8.752;2023-02-12T23:46:07;35.20;;;15.25;;
55368;SDS011;41247;49.736;8.752;2023-02-12T23:49:48;40.70;;;16.38;;
55368;SDS011;41247;49.736;8.752;2023-02-12T23:53:28;41.33;;;16.98;;
55368;SDS011;41247;49.736;8.752;2023-02-12T23:57:09;49.65;;;18.88;;
